Time;durP1;ratioP1;P1;durP2;ratioP2;P2;SDS_P1;SDS_P2;PMS_P1;PMS_P2;Temp;Humidity;BMP_temperature;BMP_pressure;BME280_temperature;BME280_humidity;BME280_pressure;Samples;Min_cycle;Max_cycle;Signal;HPM_P1;HPM_P2
2021/09/02 00:02:24;;;;;;;5.95;5.18;;;;;;;16.31;64.11;101166.16;10345031;28;20054;-54
2021/09/02 00:07:26;;;;;;;7.85;5.32;;;;;;;16.33;63.88;101159.66;10359790;28;20069;-56
2021/09/02 00:12:27;;;;;;;6.57;4.95;;;;;;;16.33;64.14;101162.34;10339742;28;20061;-55
2021/09/02 00:17:29;;;;;;;6.90;5.68;;;;;;;16.29;64.05;101166.31;10344349;28;20053;-57
2021/09/02 00:22:30;;;;;;;9.07;5.45;;;;;;;16.22;64.78;101163.31;10345018;28;20427;-55
2021/09/02 00:27:32;;;;;;;9.45;6.35;;;;;;;16.08;64.53;101144.91;10344356;28;20104;-54
2021/09/02 00:32:33;;;;;;;7.38;5.10;;;;;;;15.95;65.36;101141.63;10344406;28;20046;-55
2021/09/02 00:37:35;;;;;;;5.85;5.22;;;;;;;15.97;65.49;101145.03;10341776;28;20116;-55
2021/09/02 00:42:37;;;;;;;7.38;5.57;;;;;;;16.04;65.33;101162.28;10358214;28;20070;-56
2021/09/02 00:47:44;;;;;;;8.60;5.85;;;;;;;15.95;65.62;101149.69;10301760;28;20085;-56
2021/09/02 00:53:07;;;;;;;8.93;5.68;;;;;;;15.98;65.84;101163.69;10269385;28;20050;-58
2021/09/02 00:58:09;;;;;;;7.43;6.15;;;;;;;15.79;66.20;101158.25;10297933;28;20048;-55
2021/09/02 01:03:11;;;;;;;9.88;5.72;;;;;;;15.86;66.65;101165.63;10342866;28;20453;-55
2021/09/02 01:08:14;;;;;;;7.60;6.20;;;;;;;15.81;66.37;101170.56;10357597;28;20071;-55
2021/09/02 01:13:18;;;;;;;8.48;5.63;;;;;;;15.79;66.77;101168.97;10341930;28;20054;-55
2021/09/02 01:18:21;;;;;;;6.65;5.95;;;;;;;15.75;66.91;101171.06;10290901;28;20068;-57
2021/09/02 01:23:23;;;;;;;11.68;6.35;;;;;;;15.69;67.12;101159.03;10337027;28;20054;-56
2021/09/02 01:28:24;;;;;;;7.07;6.38;;;;;;;15.65;67.46;101159.44;10342895;28;20077;-55
2021/09/02 01:33:25;;;;;;;7.68;6.25;;;;;;;15.62;67.48;101160.53;10358027;28;20057;-55
2021/09/02 01:38:27;;;;;;;8.68;6.43;;;;;;;15.58;67.88;101167.16;10342752;28;20422;-55
2021/09/02 01:43:28;;;;;;;7.53;6.25;;;;;;;15.52;67.95;101152.47;10342728;28;20538;-55
2021/09/02 01:48:34;;;;;;;9.10;6.97;;;;;;;15.48;68.35;101147.50;10342589;28;20115;-55
2021/09/02 01:53:39;;;;;;;6.63;6.03;;;;;;;15.42;68.33;101145.31;10340234;28;20073;-56
2021/09/02 01:58:40;;;;;;;11.35;6.22;;;;;;;15.40;68.51;101141.94;10342522;28;20062;-56
2021/09/02 02:03:42;;;;;;;9.50;6.95;;;;;;;15.40;68.79;101147.31;10338403;28;20403;-56
2021/09/02 02:08:43;;;;;;;7.47;6.22;;;;;;;15.38;68.75;101142.06;10354708;28;20417;-55
2021/09/02 02:13:46;;;;;;;7.22;6.03;;;;;;;15.35;68.85;101148.53;10333335;28;20046;-55
2021/09/02 02:18:47;;;;;;;8.60;6.60;;;;;;;15.31;69.27;101148.94;10339923;28;20147;-54
2021/09/02 02:23:49;;;;;;;8.02;6.88;;;;;;;15.26;69.30;101143.13;10347506;28;20046;-54
2021/09/02 02:28:50;;;;;;;9.23;6.55;;;;;;;15.16;69.34;101127.84;10364191;28;20139;-56
2021/09/02 02:33:52;;;;;;;9.82;7.22;;;;;;;15.20;69.66;101145.34;10364115;28;20131;-55
2021/09/02 02:38:53;;;;;;;9.25;6.43;;;;;;;15.18;69.93;101144.63;10350284;28;20132;-56
2021/09/02 02:43:55;;;;;;;8.85;7.88;;;;;;;15.16;70.04;101137.69;10344110;28;20131;-59
2021/09/02 02:48:56;;;;;;;7.28;6.30;;;;;;;15.11;70.20;101140.78;10364216;28;20049;-55
2021/09/02 02:53:58;;;;;;;10.93;6.97;;;;;;;15.02;70.02;101120.13;10340059;28;20070;-56
2021/09/02 02:58:59;;;;;;;8.82;6.65;;;;;;;15.08;70.34;101130.31;10346028;28;20550;-56
2021/09/02 03:04:00;;;;;;;7.68;6.63;;;;;;;15.04;70.42;101123.50;10345760;28;20077;-56
2021/09/02 03:09:03;;;;;;;8.13;6.80;;;;;;;15.04;70.41;101128.88;10361515;28;20050;-55
2021/09/02 03:14:04;;;;;;;10.93;7.65;;;;;;;14.99;70.58;101125.75;10346299;28;20116;-57
2021/09/02 03:19:06;;;;;;;7.93;7.03;;;;;;;14.92;70.84;101127.25;10342049;28;20054;-56
2021/09/02 03:24:07;;;;;;;9.25;7.22;;;;;;;14.95;70.99;101133.22;10343809;28;20128;-55
2021/09/02 03:29:09;;;;;;;8.25;6.30;;;;;;;14.90;71.13;101131.91;10343836;28;20057;-55
2021/09/02 03:34:10;;;;;;;7.72;6.82;;;;;;;14.79;71.24;101114.91;10344681;28;20053;-56
2021/09/02 03:39:13;;;;;;;9.02;7.38;;;;;;;14.83;71.27;101127.06;10346581;28;20056;-56
2021/09/02 03:44:15;;;;;;;8.25;7.43;;;;;;;14.79;71.78;101122.94;10345518;28;20121;-56
2021/09/02 03:49:16;;;;;;;8.00;6.95;;;;;;;14.79;71.53;101124.78;10345180;28;20069;-56
2021/09/02 03:54:18;;;;;;;8.05;6.90;;;;;;;14.72;71.75;101119.06;10346474;28;20100;-56
2021/09/02 03:59:19;;;;;;;9.02;7.57;;;;;;;14.77;71.73;101132.94;10345012;28;20058;-54
2021/09/02 04:04:21;;;;;;;8.82;6.80;;;;;;;14.76;72.00;101133.06;10329620;28;20092;-56
2021/09/02 04:09:22;;;;;;;8.95;7.05;;;;;;;14.78;72.26;101133.78;10342705;28;20498;-55
2021/09/02 04:14:24;;;;;;;9.75;6.65;;;;;;;14.73;72.22;101126.13;10343419;28;20062;-56
2021/09/02 04:19:25;;;;;;;8.98;7.97;;;;;;;14.74;72.71;101143.94;10344862;28;20120;-56
2021/09/02 04:24:27;;;;;;;11.02;7.47;;;;;;;14.61;72.56;101133.38;10359063;28;20124;-56
2021/09/02 04:29:28;;;;;;;11.32;7.25;;;;;;;14.72;72.80;101151.22;10343007;28;20044;-57
2021/09/02 04:34:30;;;;;;;10.00;7.18;;;;;;;14.70;72.76;101137.13;10340625;28;20133;-57
2021/09/02 04:39:32;;;;;;;12.70;7.22;;;;;;;14.67;73.04;101142.72;10343607;28;20545;-56
2021/09/02 04:44:33;;;;;;;9.52;6.72;;;;;;;14.62;73.08;101134.22;10343104;28;20596;-56
2021/09/02 04:49:35;;;;;;;8.88;7.13;;;;;;;14.64;73.20;101149.19;10341903;28;20076;-54
2021/09/02 04:54:36;;;;;;;10.50;7.60;;;;;;;14.65;73.20;101153.59;10342561;28;20249;-59
2021/09/02 04:59:38;;;;;;;13.27;7.63;;;;;;;14.68;73.30;101160.50;10343498;28;20092;-62
2021/09/02 05:04:39;;;;;;;10.85;7.63;;;;;;;14.60;73.04;101146.88;10340069;28;20049;-56
2021/09/02 05:09:40;;;;;;;10.48;7.75;;;;;;;14.69;73.12;101162.19;10363994;22;20136;-61
2021/09/02 05:14:48;;;;;;;11.27;7.95;;;;;;;14.67;73.17;101153.44;10386089;28;20073;-61
2021/09/02 05:19:49;;;;;;;10.77;8.45;;;;;;;14.70;73.09;101163.03;10370821;28;20070;-61
2021/09/02 05:24:51;;;;;;;10.32;8.52;;;;;;;14.73;73.25;101166.34;10364221;28;20450;-62
2021/09/02 05:29:52;;;;;;;12.60;7.88;;;;;;;14.75;73.18;101167.03;10360037;28;20125;-62
2021/09/02 05:34:54;;;;;;;12.05;7.65;;;;;;;14.80;73.33;101169.34;10370202;28;20455;-62
2021/09/02 05:39:55;;;;;;;10.38;8.32;;;;;;;14.85;72.95;101178.69;10349141;28;20056;-61
2021/09/02 05:44:57;;;;;;;11.63;7.70;;;;;;;14.93;72.93;101180.72;10385914;28;20082;-61
2021/09/02 05:49:58;;;;;;;12.23;8.77;;;;;;;14.94;72.93;101163.69;10353841;28;20395;-68
2021/09/02 05:54:59;;;;;;;9.88;8.52;;;;;;;15.06;72.30;101169.84;10357797;28;20128;-61
2021/09/02 06:00:03;;;;;;;10.75;7.90;;;;;;;15.10;72.06;101171.28;10364729;28;20496;-60
2021/09/02 06:05:06;;;;;;;12.98;8.00;;;;;;;15.19;72.16;101175.84;10373362;28;20103;-60
2021/09/02 06:10:09;;;;;;;10.80;8.00;;;;;;;15.39;72.38;101173.28;10363901;28;20057;-61
2021/09/02 06:15:11;;;;;;;10.05;7.93;;;;;;;15.60;71.72;101177.75;10361230;28;20049;-61
2021/09/02 06:20:12;;;;;;;12.70;7.40;;;;;;;15.77;70.90;101174.44;10368134;28;20046;-60
2021/09/02 06:25:14;;;;;;;9.18;7.25;;;;;;;15.90;70.33;101185.00;10352850;28;20049;-61
2021/09/02 06:30:15;;;;;;;8.82;6.78;;;;;;;16.05;69.53;101185.47;10339818;28;20108;-61
2021/09/02 06:35:17;;;;;;;10.15;7.03;;;;;;;16.16;70.25;101184.50;10339588;28;20100;-62
2021/09/02 06:40:18;;;;;;;8.57;6.55;;;;;;;16.37;69.85;101181.72;10349052;28;20076;-60
2021/09/02 06:45:20;;;;;;;8.48;7.15;;;;;;;16.56;69.42;101173.69;10355272;28;20074;-62
2021/09/02 06:50:21;;;;;;;9.75;6.85;;;;;;;16.73;68.81;101182.06;10365435;28;20077;-61
2021/09/02 06:55:23;;;;;;;8.32;6.90;;;;;;;16.93;68.26;101177.53;10362370;28;20065;-62
2021/09/02 07:00:24;;;;;;;10.43;6.47;;;;;;;17.12;67.06;101180.22;10372681;28;20065;-62
2021/09/02 07:05:26;;;;;;;9.50;5.85;;;;;;;17.29;66.49;101178.66;10365415;28;20052;-63
2021/09/02 07:10:27;;;;;;;7.93;5.78;;;;;;;17.52;65.64;101191.75;10381411;28;20065;-62
2021/09/02 07:15:28;;;;;;;6.60;5.90;;;;;;;17.62;65.72;101195.25;10379935;28;20050;-61
2021/09/02 07:20:30;;;;;;;7.25;5.45;;;;;;;17.80;64.68;101187.25;10373127;28;20303;-63
2021/09/02 07:25:32;;;;;;;7.72;4.97;;;;;;;17.90;65.08;101179.16;10368450;28;20045;-61
2021/09/02 07:30:33;;;;;;;7.28;5.57;;;;;;;18.27;63.43;101194.44;10368021;28;20088;-62
2021/09/02 07:35:35;;;;;;;7.65;5.50;;;;;;;18.37;63.13;101197.94;10361065;28;20080;-65
2021/09/02 07:40:36;;;;;;;7.20;6.10;;;;;;;18.46;63.15;101195.31;10386613;28;20045;-61
2021/09/02 07:45:37;;;;;;;6.72;5.85;;;;;;;18.71;62.92;101197.25;10371118;28;20037;-63
2021/09/02 07:50:39;;;;;;;8.68;5.88;;;;;;;18.95;61.70;101186.88;10367896;28;20065;-63
2021/09/02 07:55:40;;;;;;;9.02;5.80;;;;;;;19.24;61.15;101197.38;10360593;28;20057;-63
2021/09/02 08:00:42;;;;;;;7.75;6.22;;;;;;;19.45;60.51;101185.38;10386230;28;20077;-63
2021/09/02 08:05:43;;;;;;;8.05;5.50;;;;;;;19.69;60.41;101188.22;10376671;28;20057;-63
2021/09/02 08:10:46;;;;;;;8.70;6.60;;;;;;;19.80;59.57;101188.97;10378563;28;20057;-62
2021/09/02 08:15:47;;;;;;;8.90;6.13;;;;;;;20.01;59.77;101193.97;10385088;28;20092;-63
2021/09/02 08:20:49;;;;;;;7.50;6.18;;;;;;;20.39;58.41;101189.88;10370791;28;20048;-63
2021/09/02 08:25:51;;;;;;;7.50;6.00;;;;;;;20.35;58.29;101196.63;10397323;28;20053;-63
2021/09/02 08:30:52;;;;;;;9.35;6.22;;;;;;;20.18;59.13;101198.44;10361498;28;20083;-63
2021/09/02 08:35:54;;;;;;;10.98;5.97;;;;;;;20.46;58.92;101201.72;10374267;28;20056;-61
2021/09/02 08:40:55;;;;;;;7.57;5.18;;;;;;;21.04;57.22;101201.81;10364048;28;20053;-62
2021/09/02 08:45:57;;;;;;;9.02;6.00;;;;;;;21.04;56.84;101201.81;10371547;28;20045;-62
2021/09/02 08:50:59;;;;;;;7.90;6.38;;;;;;;21.32;56.68;101199.59;10354238;28;20131;-62
2021/09/02 08:56:01;;;;;;;8.82;6.18;;;;;;;21.77;55.53;101194.63;10357170;28;20073;-63
2021/09/02 09:01:02;;;;;;;7.18;6.18;;;;;;;22.30;54.04;101197.59;10351791;28;20223;-63
2021/09/02 09:06:08;;;;;;;7.22;5.95;;;;;;;22.58;52.39;101189.84;10373865;28;20049;-64
2021/09/02 09:11:17;;;;;;;6.88;6.18;;;;;;;22.83;52.28;101191.53;10366409;28;20081;-63
2021/09/02 09:16:51;;;;;;;8.15;6.45;;;;;;;23.15;51.12;101182.31;10361367;28;20141;-63
2021/09/02 09:21:59;;;;;;;7.72;6.88;;;;;;;23.20;50.51;101181.75;10352332;28;20065;-63
2021/09/02 09:27:07;;;;;;;7.72;6.93;;;;;;;23.52;50.55;101177.84;10349299;28;20495;-61
2021/09/02 09:32:17;;;;;;;9.52;7.60;;;;;;;24.00;48.98;101183.78;10369220;28;20062;-61
2021/09/02 09:37:20;;;;;;;10.52;7.18;;;;;;;24.51;48.29;101174.72;10361965;28;20124;-62
2021/09/02 09:42:21;;;;;;;8.23;7.07;;;;;;;25.08;47.08;101174.03;10362919;28;20078;-62
2021/09/02 09:47:23;;;;;;;7.57;6.80;;;;;;;25.39;45.84;101177.22;10346318;28;20081;-62
2021/09/02 09:52:37;;;;;;;10.32;5.97;;;;;;;25.75;45.30;101173.47;10367912;28;20065;-63
2021/09/02 09:57:41;;;;;;;8.30;6.88;;;;;;;26.29;43.30;101171.81;10354468;28;20110;-61
2021/09/02 10:02:45;;;;;;;7.88;6.38;;;;;;;26.79;42.25;101170.69;10377291;28;20136;-62
2021/09/02 10:07:48;;;;;;;7.32;5.32;;;;;;;27.38;41.29;101163.53;10363046;28;21028;-63
2021/09/02 10:12:49;;;;;;;8.18;6.65;;;;;;;28.21;39.09;101160.13;10362752;28;20093;-63
2021/09/02 10:17:51;;;;;;;8.77;6.90;;;;;;;29.40;36.92;101153.16;10374623;28;20076;-64
2021/09/02 10:22:57;;;;;;;;;;;;;;;32.23;31.18;101146.50;10370965;28;20097;-63
2021/09/02 10:28:02;;;;;;;4.75;4.35;;;;;;;35.28;26.55;101143.75;10351568;28;19974;-63
2021/09/02 10:33:33;;;;;;;7.10;5.22;;;;;;;34.44;27.83;101130.38;10367164;28;20052;-64
2021/09/02 10:38:39;;;;;;;5.57;5.07;;;;;;;32.41;30.51;101116.00;10366508;28;20136;-64
2021/09/02 10:43:49;;;;;;;6.90;5.00;;;;;;;32.04;31.33;101127.41;10383807;28;20638;-64
2021/09/02 10:48:50;;;;;;;7.50;5.63;;;;;;;35.43;26.37;101124.44;10378501;28;20069;-64
2021/09/02 10:54:01;;;;;;;5.63;5.13;;;;;;;37.74;22.51;101109.84;10371368;28;20042;-63
2021/09/02 10:59:03;;;;;;;5.18;4.78;;;;;;;40.51;19.46;101096.00;10389712;28;20046;-62
2021/09/02 11:04:12;;;;;;;5.15;4.50;;;;;;;40.81;18.58;101098.25;10395586;28;20049;-64
2021/09/02 11:09:30;;;;;;;5.75;4.13;;;;;;;39.90;19.67;101102.22;10416795;22;20652;-72
2021/09/02 11:14:39;;;;;;;5.38;3.90;;;;;;;34.42;25.53;101099.38;10395249;28;20950;-73
2021/09/02 11:19:46;;;;;;;4.95;4.45;;;;;;;33.98;26.59;101094.81;10397194;28;20640;-72
2021/09/02 11:24:50;;;;;;;5.40;4.80;;;;;;;36.50;23.32;101092.63;10388905;28;20050;-73
2021/09/02 11:29:52;;;;;;;7.85;4.47;;;;;;;39.17;19.56;101084.81;10395740;28;20121;-73
2021/09/02 11:35:01;;;;;;;5.97;4.93;;;;;;;39.46;19.33;101072.75;10395163;28;20045;-74
2021/09/02 11:40:02;;;;;;;4.28;3.88;;;;;;;34.00;25.86;101077.97;10396247;28;20500;-73
2021/09/02 11:45:05;;;;;;;3.95;3.65;;;;;;;39.19;21.10;101070.59;10395516;28;20037;-72
2021/09/02 11:50:06;;;;;;;4.35;3.95;;;;;;;42.67;16.15;101057.78;10403972;28;20070;-73
2021/09/02 11:55:14;;;;;;;3.17;2.97;;;;;;;44.71;14.64;101045.28;10404429;28;20121;-73
2021/09/02 12:00:16;;;;;;;3.15;2.95;;;;;;;42.15;16.41;101050.72;10407474;28;20069;-73
2021/09/02 12:05:22;;;;;;;3.97;3.20;;;;;;;44.05;15.72;101036.03;10412323;28;20495;-74
2021/09/02 12:10:24;;;;;;;3.90;3.60;;;;;;;42.79;14.78;101038.44;10393937;28;20133;-73
2021/09/02 12:15:29;;;;;;;3.55;2.95;;;;;;;42.96;15.94;101028.47;10394018;28;20069;-74
2021/09/02 12:20:31;;;;;;;6.57;3.72;;;;;;;40.47;18.27;101026.91;10394087;28;20141;-73
2021/09/02 12:25:33;;;;;;;4.50;4.10;;;;;;;36.20;23.10;101027.75;10408922;28;20056;-73
2021/09/02 12:30:44;;;;;;;3.83;3.42;;;;;;;38.18;20.47;101036.78;10408666;28;20048;-73
2021/09/02 12:35:46;;;;;;;5.18;3.50;;;;;;;39.17;19.40;101043.06;10395810;28;20124;-73
2021/09/02 12:40:48;;;;;;;3.85;3.40;;;;;;;36.33;22.46;101031.91;10388776;28;20049;-72
2021/09/02 12:45:57;;;;;;;4.57;3.28;;;;;;;35.04;23.64;101027.94;10392229;28;20495;-73
2021/09/02 12:51:00;;;;;;;4.65;2.63;;;;;;;33.95;24.75;101022.72;10408179;28;20041;-74
2021/09/02 12:56:18;;;;;;;4.13;3.40;;;;;;;33.59;25.33;101019.56;10394643;28;20843;-73
2021/09/02 13:01:19;;;;;;;3.35;3.08;;;;;;;33.30;26.30;101017.03;10395533;28;20478;-73
2021/09/02 13:06:20;;;;;;;3.45;3.15;;;;;;;33.17;26.16;101012.69;10392648;28;20053;-73
2021/09/02 13:11:22;;;;;;;4.20;3.80;;;;;;;32.59;27.25;100993.69;10392443;28;20141;-72
2021/09/02 13:16:23;;;;;;;3.72;3.35;;;;;;;32.51;27.13;100994.09;10391416;28;20140;-74
2021/09/02 13:21:25;;;;;;;3.95;3.55;;;;;;;32.16;27.84;101002.59;10392404;28;20587;-73
2021/09/02 13:26:26;;;;;;;4.07;3.67;;;;;;;32.26;27.62;100989.00;10391539;28;20226;-73
2021/09/02 13:31:28;;;;;;;4.45;3.60;;;;;;;31.66;27.87;100983.03;10392017;28;20124;-71
2021/09/02 13:36:29;;;;;;;4.20;3.40;;;;;;;30.80;29.91;100985.59;10391494;28;20610;-71
2021/09/02 13:41:31;;;;;;;;;;;;;;;30.66;30.00;100985.03;10391421;28;20060;-71
2021/09/02 13:46:32;;;;;;;4.10;3.70;;;;;;;30.45;30.35;100991.94;10391221;28;20417;-71
2021/09/02 13:51:34;;;;;;;6.10;3.50;;;;;;;30.53;29.58;100983.34;10387394;28;20057;-71
2021/09/02 13:56:35;;;;;;;4.43;3.97;;;;;;;30.22;30.25;100978.97;10389402;28;20575;-71
2021/09/02 14:01:39;;;;;;;3.78;3.38;;;;;;;30.21;30.83;100977.34;10391216;28;20102;-72
2021/09/02 14:06:40;;;;;;;4.88;3.83;;;;;;;29.70;30.69;100976.81;10389559;28;20087;-71
2021/09/02 14:11:42;;;;;;;3.75;3.45;;;;;;;29.41;31.11;100963.72;10389327;28;20069;-71
2021/09/02 14:16:43;;;;;;;4.55;3.33;;;;;;;28.80;32.71;100967.38;10404301;28;20738;-71
2021/09/02 14:21:45;;;;;;;6.00;3.30;;;;;;;28.31;32.62;100970.75;10404818;28;20500;-72
2021/09/02 14:26:46;;;;;;;5.15;3.72;;;;;;;28.16;33.71;100962.06;10390063;28;20162;-71
2021/09/02 14:31:49;;;;;;;4.05;3.63;;;;;;;28.07;33.86;100958.75;10390288;28;20144;-72
2021/09/02 14:36:50;;;;;;;4.45;3.67;;;;;;;27.73;34.28;100943.59;10389557;28;20571;-72
2021/09/02 14:41:51;;;;;;;4.53;4.00;;;;;;;27.39;34.76;100941.09;10396057;28;20053;-71
2021/09/02 14:46:52;;;;;;;3.72;3.40;;;;;;;26.84;35.62;100937.91;10389498;28;20471;-72
2021/09/02 14:51:54;;;;;;;5.78;4.15;;;;;;;26.76;36.17;100937.09;10391829;28;20499;-72
2021/09/02 14:56:56;;;;;;;4.00;3.60;;;;;;;26.94;36.43;100938.31;10388766;28;20041;-71
2021/09/02 15:01:57;;;;;;;5.73;4.37;;;;;;;26.76;36.17;100948.00;10388848;28;20110;-71
2021/09/02 15:06:59;;;;;;;4.97;4.17;;;;;;;26.69;36.21;100932.69;10388026;28;20060;-71
2021/09/02 15:12:01;;;;;;;5.15;3.88;;;;;;;26.38;37.24;100924.13;10386180;28;21717;-72
2021/09/02 15:17:03;;;;;;;6.75;4.88;;;;;;;26.32;38.08;100924.97;10384609;28;20110;-72
2021/09/02 15:22:09;;;;;;;6.72;4.18;;;;;;;26.06;37.96;100914.91;10407324;28;20056;-71
2021/09/02 15:27:12;;;;;;;6.47;4.78;;;;;;;25.75;37.67;100902.72;10394822;28;20123;-71
2021/09/02 15:32:13;;;;;;;5.07;4.53;;;;;;;25.55;38.40;100897.22;10394906;28;20056;-70
2021/09/02 15:37:15;;;;;;;7.20;4.50;;;;;;;25.26;38.63;100899.22;10394976;28;20055;-70
2021/09/02 15:42:17;;;;;;;4.68;3.75;;;;;;;25.15;39.27;100897.94;10394198;28;20058;-70
2021/09/02 15:47:18;;;;;;;5.63;4.53;;;;;;;25.02;39.54;100892.44;10394637;28;20495;-70
2021/09/02 15:52:19;;;;;;;4.75;4.28;;;;;;;25.10;39.90;100895.00;10400455;28;20096;-72
2021/09/02 15:57:21;;;;;;;5.93;4.90;;;;;;;25.12;40.07;100886.63;10385046;28;20559;-72
2021/09/02 16:02:22;;;;;;;5.95;5.43;;;;;;;24.98;40.06;100885.69;10397844;28;20054;-71
2021/09/02 16:07:28;;;;;;;6.00;5.38;;;;;;;24.85;40.27;100878.34;10397877;28;21773;-71
2021/09/02 16:12:29;;;;;;;7.70;5.22;;;;;;;24.58;41.30;100872.75;10401450;28;20072;-70
2021/09/02 16:17:32;;;;;;;6.85;4.60;;;;;;;24.49;41.40;100865.78;10392652;28;20522;-70
2021/09/02 16:22:37;;;;;;;5.43;4.93;;;;;;;24.34;41.62;100858.56;10392563;28;20076;-70
2021/09/02 16:27:39;;;;;;;5.45;4.90;;;;;;;24.28;42.23;100863.97;10393282;28;20068;-70
2021/09/02 16:32:40;;;;;;;5.25;4.75;;;;;;;24.32;42.45;100844.31;10394286;28;20048;-70
2021/09/02 16:37:42;;;;;;;7.10;5.05;;;;;;;24.31;41.97;100847.25;10411141;28;20657;-70
2021/09/02 16:42:43;;;;;;;7.22;4.93;;;;;;;24.22;42.20;100848.44;10410120;28;20142;-70
2021/09/02 16:47:45;;;;;;;5.43;4.90;;;;;;;24.18;42.54;100847.97;10391973;28;20491;-70
2021/09/02 16:52:46;;;;;;;5.07;4.68;;;;;;;23.93;43.23;100856.59;10391522;28;20125;-70
2021/09/02 16:57:52;;;;;;;7.07;4.78;;;;;;;23.78;43.90;100853.09;10391316;28;20099;-70
2021/09/02 17:02:53;;;;;;;5.07;4.57;;;;;;;23.62;43.41;100837.91;10391195;28;20124;-69
2021/09/02 17:08:00;;;;;;;5.63;5.03;;;;;;;23.64;43.84;100847.56;10404169;28;20061;-69
2021/09/02 17:13:02;;;;;;;5.57;5.07;;;;;;;23.50;43.69;100844.91;10435655;22;20046;-72
2021/09/02 17:18:07;;;;;;;5.22;4.72;;;;;;;23.41;44.32;100841.47;10410042;28;20099;-72
2021/09/02 17:23:08;;;;;;;5.38;4.88;;;;;;;23.39;44.43;100843.53;10420661;28;20130;-72
2021/09/02 17:28:10;;;;;;;6.43;4.93;;;;;;;23.32;44.92;100837.22;10421873;28;20049;-72
2021/09/02 17:33:11;;;;;;;5.85;5.15;;;;;;;23.24;45.49;100830.88;10422343;28;20526;-72
2021/09/02 17:38:13;;;;;;;7.38;5.82;;;;;;;23.21;45.70;100833.09;10436326;28;20074;-73
2021/09/02 17:43:15;;;;;;;6.05;5.00;;;;;;;23.12;46.28;100832.41;10408744;28;20152;-72
2021/09/02 17:48:16;;;;;;;7.65;6.05;;;;;;;23.00;46.98;100829.31;10408147;28;20077;-73
2021/09/02 17:53:17;;;;;;;11.38;6.03;;;;;;;22.93;47.20;100829.22;10415859;28;20124;-72
2021/09/02 17:58:19;;;;;;;9.07;5.82;;;;;;;22.81;47.94;100825.34;10424312;28;20552;-72
2021/09/02 18:03:20;;;;;;;7.00;6.30;;;;;;;22.64;48.44;100824.72;10413858;28;20379;-72
2021/09/02 18:08:22;;;;;;;7.18;5.97;;;;;;;22.57;49.02;100830.03;10417957;28;20560;-73
2021/09/02 18:13:23;;;;;;;7.35;5.93;;;;;;;22.47;49.48;100831.34;10440404;28;20132;-73
2021/09/02 18:18:24;;;;;;;6.25;5.55;;;;;;;22.36;49.92;100832.69;10410576;28;20229;-72
2021/09/02 18:23:26;;;;;;;6.20;5.60;;;;;;;22.27;50.25;100839.19;10415193;28;20169;-73
2021/09/02 18:28:27;;;;;;;8.18;6.55;;;;;;;22.19;50.59;100842.84;10429442;28;20499;-72
2021/09/02 18:33:37;;;;;;;7.00;6.13;;;;;;;22.08;51.07;100841.41;10421022;28;20065;-72
2021/09/02 18:38:38;;;;;;;10.93;7.28;;;;;;;21.98;51.01;100840.81;10415013;28;20438;-72
2021/09/02 18:43:42;;;;;;;7.00;6.30;;;;;;;21.93;51.28;100843.25;10431508;28;20084;-72
2021/09/02 18:48:44;;;;;;;6.90;6.30;;;;;;;21.80;50.90;100842.03;10433308;28;20045;-72
2021/09/02 18:53:46;;;;;;;6.85;6.15;;;;;;;21.76;51.04;100840.69;10423821;28;20136;-72
2021/09/02 18:58:48;;;;;;;6.15;5.55;;;;;;;21.68;51.75;100830.78;10424806;28;20108;-72
2021/09/02 19:03:52;;;;;;;5.55;5.07;;;;;;;21.64;51.69;100828.63;10438113;28;20112;-73
2021/09/02 19:08:57;;;;;;;6.57;6.00;;;;;;;21.48;51.55;100814.16;10413007;28;20144;-75
2021/09/02 19:14:05;;;;;;;8.05;6.75;;;;;;;21.46;52.04;100820.78;10426973;28;20136;-72
2021/09/02 19:19:07;;;;;;;6.30;5.70;;;;;;;21.41;52.14;100818.59;10454182;28;20136;-72
2021/09/02 19:24:08;;;;;;;6.60;5.57;;;;;;;21.33;52.44;100810.53;10437862;28;20074;-72
2021/09/02 19:29:10;;;;;;;8.05;6.03;;;;;;;21.23;52.27;100813.50;10424877;28;20410;-72
2021/09/02 19:34:18;;;;;;;6.80;5.90;;;;;;;21.24;52.33;100836.81;10421450;28;20113;-72
2021/09/02 19:39:20;;;;;;;7.68;5.88;;;;;;;21.10;52.71;100816.78;10433367;28;20044;-73
2021/09/02 19:44:22;;;;;;;6.15;5.55;;;;;;;21.06;52.95;100826.28;10411203;28;20132;-73
2021/09/02 19:49:34;;;;;;;5.80;5.25;;;;;;;21.07;53.24;100827.97;10432573;28;20072;-71
2021/09/02 19:54:53;;;;;;;6.15;5.18;;;;;;;21.03;53.42;100826.63;10419364;28;20395;-72
2021/09/02 20:00:07;;;;;;;6.35;5.75;;;;;;;20.91;53.53;100823.50;10425915;28;20136;-74
2021/09/02 20:05:32;;;;;;;6.15;5.55;;;;;;;20.89;53.63;100819.28;10419091;28;20052;-72
2021/09/02 20:10:37;;;;;;;6.80;5.78;;;;;;;20.75;54.06;100816.31;10374834;28;20427;-73
2021/09/02 20:15:41;;;;;;;7.00;5.90;;;;;;;20.77;53.94;100816.13;10414075;28;20140;-73
2021/09/02 20:20:43;;;;;;;6.40;5.45;;;;;;;20.65;54.05;100807.53;10447383;28;20560;-72
2021/09/02 20:25:48;;;;;;;7.82;6.55;;;;;;;20.65;54.84;100812.94;10410502;28;20047;-72
2021/09/02 20:30:52;;;;;;;6.00;5.40;;;;;;;20.59;54.92;100819.88;10430372;28;20045;-72
2021/09/02 20:35:59;;;;;;;5.80;5.30;;;;;;;20.51;55.00;100811.81;10420077;28;20049;-72
2021/09/02 20:41:08;;;;;;;8.10;5.75;;;;;;;20.39;55.30;100807.81;10408377;28;20061;-72
2021/09/02 20:46:12;;;;;;;6.72;5.88;;;;;;;20.38;55.89;100811.53;10414297;28;20064;-70
2021/09/02 20:51:13;;;;;;;;;;;;;;;20.33;56.23;100817.47;10407119;28;20044;-71
2021/09/02 20:56:15;;;;;;;9.10;5.70;;;;;;;20.25;56.72;100817.47;10393294;28;19921;-72
2021/09/02 21:01:16;;;;;;;8.65;6.15;;;;;;;20.12;57.14;100809.91;10407514;28;20059;-73
2021/09/02 21:06:19;;;;;;;6.07;4.93;;;;;;;20.05;58.03;100823.25;10430825;28;20054;-72
2021/09/02 21:11:20;;;;;;;5.85;5.25;;;;;;;19.95;58.69;100825.31;10422933;28;20570;-71
2021/09/02 21:16:22;;;;;;;5.80;5.28;;;;;;;19.91;58.94;100826.69;10409259;28;20479;-72
2021/09/02 21:21:28;;;;;;;5.35;4.85;;;;;;;19.84;59.26;100817.56;10408847;28;20595;-72
2021/09/02 21:26:33;;;;;;;5.57;4.82;;;;;;;19.80;59.15;100816.22;10416119;28;20063;-72
2021/09/02 21:31:50;;;;;;;5.90;5.28;;;;;;;19.68;59.71;100816.53;10398411;28;20128;-73
2021/09/02 21:36:52;;;;;;;7.53;5.38;;;;;;;19.58;59.82;100816.69;10426917;28;20542;-72
2021/09/02 21:42:00;;;;;;;7.43;5.75;;;;;;;19.53;60.19;100818.22;10394736;28;20045;-72
2021/09/02 21:47:13;;;;;;;5.85;5.30;;;;;;;19.40;60.58;100797.97;10405049;28;20098;-71
2021/09/02 21:52:17;;;;;;;6.05;5.43;;;;;;;19.35;60.83;100813.84;10416198;28;20057;-71
2021/09/02 21:57:20;;;;;;;5.70;5.07;;;;;;;19.24;61.21;100803.34;10398668;28;20044;-71
2021/09/02 22:02:25;;;;;;;7.63;5.72;;;;;;;19.21;61.57;100806.38;10420783;28;20052;-72
2021/09/02 22:07:27;;;;;;;6.13;5.53;;;;;;;19.12;62.13;100810.91;10439060;28;20411;-72
2021/09/02 22:12:33;;;;;;;6.18;5.60;;;;;;;19.08;62.64;100802.31;10405741;28;20293;-72
2021/09/02 22:17:56;;;;;;;5.72;5.20;;;;;;;19.05;62.75;100812.59;10391974;28;20140;-72
2021/09/02 22:23:03;;;;;;;7.20;5.60;;;;;;;18.94;63.27;100808.34;10421997;28;20427;-71
2021/09/02 22:28:05;;;;;;;5.88;5.22;;;;;;;18.90;63.97;100813.25;10392971;28;20045;-71
2021/09/02 22:33:08;;;;;;;5.38;4.72;;;;;;;18.83;64.11;100800.56;10395080;28;20041;-72
2021/09/02 22:38:12;;;;;;;6.43;5.60;;;;;;;18.84;64.31;100802.22;10430479;28;20060;-72
2021/09/02 22:43:16;;;;;;;9.38;5.78;;;;;;;18.84;64.48;100799.53;10422963;28;20132;-71
2021/09/02 22:48:19;;;;;;;7.75;6.05;;;;;;;18.75;64.68;100803.22;10428305;28;20407;-72
2021/09/02 22:53:21;;;;;;;;;;;;;;;18.68;65.26;100803.88;10415567;28;20053;-72
2021/09/02 22:58:25;;;;;;;6.68;5.95;;;;;;;18.62;65.14;100796.44;10423829;28;19924;-71
2021/09/02 23:03:26;;;;;;;6.68;5.53;;;;;;;18.57;65.76;100793.41;10413718;28;20060;-72
2021/09/02 23:08:40;;;;;;;6.18;5.43;;;;;;;18.51;65.38;100794.00;10424830;28;20061;-72
2021/09/02 23:13:49;;;;;;;6.07;5.47;;;;;;;18.42;65.48;100786.91;10424964;22;20053;-55